sensor_id;sensor_type;location;lat;lon;timestamp;P1;durP1;ratioP1;P2;durP2;ratioP2
41627;SDS011;27321;50.816;6.054;2024-03-06T00:02:41;1.30;;;1.20;;
41627;SDS011;27321;50.816;6.054;2024-03-06T00:05:42;1.85;;;1.35;;
41627;SDS011;27321;50.816;6.054;2024-03-06T00:08:44;3.47;;;1.35;;
41627;SDS011;27321;50.816;6.054;2024-03-06T00:11:44;1.30;;;1.10;;
41627;SDS011;27321;50.816;6.054;2024-03-06T00:14:45;2.00;;;1.30;;
41627;SDS011;27321;50.816;6.054;2024-03-06T00:17:46;1.43;;;0.90;;
41627;SDS011;27321;50.816;6.054;2024-03-06T00:20:47;1.37;;;1.10;;
41627;SDS011;27321;50.816;6.054;2024-03-06T00:23:48;0.93;;;0.87;;
41627;SDS011;27321;50.816;6.054;2024-03-06T00:26:49;1.03;;;0.93;;
41627;SDS011;27321;50.816;6.054;2024-03-06T00:29:50;1.77;;;1.30;;
41627;SDS011;27321;50.816;6.054;2024-03-06T00:32:51;1.13;;;1.03;;
41627;SDS011;27321;50.816;6.054;2024-03-06T00:35:52;1.40;;;1.20;;
41627;SDS011;27321;50.816;6.054;2024-03-06T00:38:53;1.80;;;1.07;;
41627;SDS011;27321;50.816;6.054;2024-03-06T00:41:54;0.80;;;0.80;;
41627;SDS011;27321;50.816;6.054;2024-03-06T00:44:55;1.07;;;0.87;;
41627;SDS011;27321;50.816;6.054;2024-03-06T00:47:55;1.30;;;1.00;;
41627;SDS011;27321;50.816;6.054;2024-03-06T00:50:56;1.00;;;0.90;;
41627;SDS011;27321;50.816;6.054;2024-03-06T00:53:57;1.65;;;1.10;;
41627;SDS011;27321;50.816;6.054;2024-03-06T00:56:58;2.30;;;0.90;;
41627;SDS011;27321;50.816;6.054;2024-03-06T01:00:00;1.83;;;0.85;;
41627;SDS011;27321;50.816;6.054;2024-03-06T01:03:02;1.20;;;0.90;;
41627;SDS011;27321;50.816;6.054;2024-03-06T01:06:03;0.83;;;0.80;;
41627;SDS011;27321;50.816;6.054;2024-03-06T01:09:04;0.80;;;0.80;;
41627;SDS011;27321;50.816;6.054;2024-03-06T01:12:05;0.80;;;0.80;;
41627;SDS011;27321;50.816;6.054;2024-03-06T01:15:06;1.13;;;0.90;;
41627;SDS011;27321;50.816;6.054;2024-03-06T01:18:08;1.47;;;1.10;;
41627;SDS011;27321;50.816;6.054;2024-03-06T01:21:09;0.80;;;0.80;;
41627;SDS011;27321;50.816;6.054;2024-03-06T01:24:10;0.90;;;0.90;;
41627;SDS011;27321;50.816;6.054;2024-03-06T01:27:11;1.30;;;1.20;;
41627;SDS011;27321;50.816;6.054;2024-03-06T01:30:12;1.17;;;0.87;;
41627;SDS011;27321;50.816;6.054;2024-03-06T01:33:13;0.93;;;0.67;;
41627;SDS011;27321;50.816;6.054;2024-03-06T01:36:14;1.90;;;1.13;;
41627;SDS011;27321;50.816;6.054;2024-03-06T01:39:14;0.70;;;0.70;;
41627;SDS011;27321;50.816;6.054;2024-03-06T01:42:16;1.07;;;0.83;;
41627;SDS011;27321;50.816;6.054;2024-03-06T01:45:18;1.20;;;0.90;;
41627;SDS011;27321;50.816;6.054;2024-03-06T01:48:21;1.13;;;0.90;;
41627;SDS011;27321;50.816;6.054;2024-03-06T01:51:27;1.63;;;0.90;;
41627;SDS011;27321;50.816;6.054;2024-03-06T01:54:28;1.50;;;1.10;;
41627;SDS011;27321;50.816;6.054;2024-03-06T01:57:32;0.90;;;0.70;;
41627;SDS011;27321;50.816;6.054;2024-03-06T02:00:34;1.17;;;0.80;;
41627;SDS011;27321;50.816;6.054;2024-03-06T02:03:37;1.80;;;0.73;;
41627;SDS011;27321;50.816;6.054;2024-03-06T02:06:38;1.00;;;0.90;;
41627;SDS011;27321;50.816;6.054;2024-03-06T02:12:41;1.20;;;0.90;;
41627;SDS011;27321;50.816;6.054;2024-03-06T02:15:44;1.10;;;0.97;;
41627;SDS011;27321;50.816;6.054;2024-03-06T02:18:52;0.70;;;0.67;;
41627;SDS011;27321;50.816;6.054;2024-03-06T02:21:54;1.17;;;0.87;;
41627;SDS011;27321;50.816;6.054;2024-03-06T02:24:55;1.20;;;0.77;;
41627;SDS011;27321;50.816;6.054;2024-03-06T02:27:56;1.08;;;0.80;;
41627;SDS011;27321;50.816;6.054;2024-03-06T02:30:57;0.93;;;0.70;;
41627;SDS011;27321;50.816;6.054;2024-03-06T02:33:59;0.95;;;0.60;;
41627;SDS011;27321;50.816;6.054;2024-03-06T02:37:04;1.10;;;0.57;;
41627;SDS011;27321;50.816;6.054;2024-03-06T02:40:06;1.08;;;0.63;;
41627;SDS011;27321;50.816;6.054;2024-03-06T02:43:10;0.70;;;0.70;;
41627;SDS011;27321;50.816;6.054;2024-03-06T02:46:11;0.77;;;0.77;;
41627;SDS011;27321;50.816;6.054;2024-03-06T02:49:12;1.70;;;0.70;;
41627;SDS011;27321;50.816;6.054;2024-03-06T02:52:12;0.93;;;0.80;;
41627;SDS011;27321;50.816;6.054;2024-03-06T02:55:13;0.80;;;0.80;;
41627;SDS011;27321;50.816;6.054;2024-03-06T02:58:15;0.98;;;0.60;;
41627;SDS011;27321;50.816;6.054;2024-03-06T03:01:18;1.83;;;0.70;;
41627;SDS011;27321;50.816;6.054;2024-03-06T03:04:19;0.50;;;0.50;;
41627;SDS011;27321;50.816;6.054;2024-03-06T03:07:20;0.50;;;0.50;;
41627;SDS011;27321;50.816;6.054;2024-03-06T03:10:21;0.87;;;0.60;;
41627;SDS011;27321;50.816;6.054;2024-03-06T03:13:24;0.90;;;0.63;;
41627;SDS011;27321;50.816;6.054;2024-03-06T03:16:25;0.83;;;0.70;;
41627;SDS011;27321;50.816;6.054;2024-03-06T03:19:26;1.30;;;0.70;;
41627;SDS011;27321;50.816;6.054;2024-03-06T03:22:27;0.90;;;0.70;;
41627;SDS011;27321;50.816;6.054;2024-03-06T03:25:28;0.83;;;0.70;;
41627;SDS011;27321;50.816;6.054;2024-03-06T03:28:29;0.73;;;0.70;;
41627;SDS011;27321;50.816;6.054;2024-03-06T03:31:30;0.70;;;0.60;;
41627;SDS011;27321;50.816;6.054;2024-03-06T03:34:32;1.30;;;0.85;;
41627;SDS011;27321;50.816;6.054;2024-03-06T03:37:36;2.30;;;0.87;;
41627;SDS011;27321;50.816;6.054;2024-03-06T03:40:37;0.97;;;0.80;;
41627;SDS011;27321;50.816;6.054;2024-03-06T03:43:39;1.03;;;0.73;;
41627;SDS011;27321;50.816;6.054;2024-03-06T03:46:40;1.70;;;0.87;;
41627;SDS011;27321;50.816;6.054;2024-03-06T03:49:42;1.80;;;0.77;;
41627;SDS011;27321;50.816;6.054;2024-03-06T03:52:42;1.37;;;0.90;;
41627;SDS011;27321;50.816;6.054;2024-03-06T03:55:44;0.70;;;0.70;;
41627;SDS011;27321;50.816;6.054;2024-03-06T03:58:45;1.33;;;1.00;;
41627;SDS011;27321;50.816;6.054;2024-03-06T04:01:46;1.10;;;0.90;;
41627;SDS011;27321;50.816;6.054;2024-03-06T04:04:47;1.35;;;0.90;;
41627;SDS011;27321;50.816;6.054;2024-03-06T04:07:47;0.97;;;0.80;;
41627;SDS011;27321;50.816;6.054;2024-03-06T04:10:48;0.70;;;0.70;;
41627;SDS011;27321;50.816;6.054;2024-03-06T04:13:49;1.10;;;0.87;;
41627;SDS011;27321;50.816;6.054;2024-03-06T04:16:50;1.00;;;0.70;;
41627;SDS011;27321;50.816;6.054;2024-03-06T04:19:51;1.50;;;0.80;;
41627;SDS011;27321;50.816;6.054;2024-03-06T04:22:53;0.80;;;0.75;;
41627;SDS011;27321;50.816;6.054;2024-03-06T04:25:54;0.87;;;0.70;;
41627;SDS011;27321;50.816;6.054;2024-03-06T04:28:55;1.42;;;0.90;;
41627;SDS011;27321;50.816;6.054;2024-03-06T04:31:56;0.70;;;0.60;;
41627;SDS011;27321;50.816;6.054;2024-03-06T04:34:57;0.90;;;0.70;;
41627;SDS011;27321;50.816;6.054;2024-03-06T04:37:59;0.80;;;0.70;;
41627;SDS011;27321;50.816;6.054;2024-03-06T04:41:05;0.80;;;0.70;;
41627;SDS011;27321;50.816;6.054;2024-03-06T04:44:07;0.50;;;0.50;;
41627;SDS011;27321;50.816;6.054;2024-03-06T04:47:08;0.80;;;0.70;;
41627;SDS011;27321;50.816;6.054;2024-03-06T04:50:09;0.90;;;0.80;;
41627;SDS011;27321;50.816;6.054;2024-03-06T04:53:11;1.30;;;0.93;;
41627;SDS011;27321;50.816;6.054;2024-03-06T04:56:12;0.77;;;0.67;;
41627;SDS011;27321;50.816;6.054;2024-03-06T04:59:13;0.68;;;0.68;;
41627;SDS011;27321;50.816;6.054;2024-03-06T05:05:16;1.20;;;1.10;;
41627;SDS011;27321;50.816;6.054;2024-03-06T05:08:20;1.38;;;0.98;;
41627;SDS011;27321;50.816;6.054;2024-03-06T05:11:21;1.03;;;0.73;;
41627;SDS011;27321;50.816;6.054;2024-03-06T05:14:22;0.90;;;0.90;;
41627;SDS011;27321;50.816;6.054;2024-03-06T05:17:22;1.90;;;0.80;;
41627;SDS011;27321;50.816;6.054;2024-03-06T05:20:23;0.80;;;0.80;;
41627;SDS011;27321;50.816;6.054;2024-03-06T05:23:24;1.30;;;0.90;;
41627;SDS011;27321;50.816;6.054;2024-03-06T05:26:25;1.10;;;1.00;;
41627;SDS011;27321;50.816;6.054;2024-03-06T05:29:26;0.83;;;0.80;;
41627;SDS011;27321;50.816;6.054;2024-03-06T05:32:27;0.77;;;0.67;;
41627;SDS011;27321;50.816;6.054;2024-03-06T05:35:28;0.82;;;0.80;;
41627;SDS011;27321;50.816;6.054;2024-03-06T05:38:29;0.70;;;0.70;;
41627;SDS011;27321;50.816;6.054;2024-03-06T05:41:30;1.00;;;0.90;;
41627;SDS011;27321;50.816;6.054;2024-03-06T05:44:31;1.27;;;0.90;;
41627;SDS011;27321;50.816;6.054;2024-03-06T05:47:33;2.30;;;1.02;;
41627;SDS011;27321;50.816;6.054;2024-03-06T05:50:34;2.53;;;1.13;;
41627;SDS011;27321;50.816;6.054;2024-03-06T05:53:38;1.03;;;0.93;;
41627;SDS011;27321;50.816;6.054;2024-03-06T05:56:40;1.97;;;0.90;;
41627;SDS011;27321;50.816;6.054;2024-03-06T05:59:42;1.10;;;1.00;;
41627;SDS011;27321;50.816;6.054;2024-03-06T06:02:43;1.20;;;0.83;;
41627;SDS011;27321;50.816;6.054;2024-03-06T06:05:46;0.80;;;0.80;;
41627;SDS011;27321;50.816;6.054;2024-03-06T06:08:47;0.97;;;0.80;;
41627;SDS011;27321;50.816;6.054;2024-03-06T06:11:48;0.80;;;0.80;;
41627;SDS011;27321;50.816;6.054;2024-03-06T06:14:50;1.23;;;0.90;;
41627;SDS011;27321;50.816;6.054;2024-03-06T06:17:51;1.60;;;0.93;;
41627;SDS011;27321;50.816;6.054;2024-03-06T06:20:52;1.40;;;1.03;;
41627;SDS011;27321;50.816;6.054;2024-03-06T06:23:53;0.98;;;0.80;;
41627;SDS011;27321;50.816;6.054;2024-03-06T06:26:54;0.67;;;0.67;;
41627;SDS011;27321;50.816;6.054;2024-03-06T06:29:55;2.17;;;0.90;;
41627;SDS011;27321;50.816;6.054;2024-03-06T06:32:58;1.23;;;1.00;;
41627;SDS011;27321;50.816;6.054;2024-03-06T06:35:59;2.47;;;1.27;;
41627;SDS011;27321;50.816;6.054;2024-03-06T06:39:05;1.33;;;0.80;;
41627;SDS011;27321;50.816;6.054;2024-03-06T06:42:06;1.40;;;1.05;;
41627;SDS011;27321;50.816;6.054;2024-03-06T06:45:09;0.87;;;0.83;;
41627;SDS011;27321;50.816;6.054;2024-03-06T06:48:09;1.10;;;1.00;;
41627;SDS011;27321;50.816;6.054;2024-03-06T06:51:10;1.00;;;0.90;;
41627;SDS011;27321;50.816;6.054;2024-03-06T06:54:11;2.00;;;1.17;;
41627;SDS011;27321;50.816;6.054;2024-03-06T06:57:12;1.23;;;1.10;;
41627;SDS011;27321;50.816;6.054;2024-03-06T07:00:13;1.10;;;0.90;;
41627;SDS011;27321;50.816;6.054;2024-03-06T07:03:17;1.43;;;1.00;;
41627;SDS011;27321;50.816;6.054;2024-03-06T07:06:18;1.58;;;1.27;;
41627;SDS011;27321;50.816;6.054;2024-03-06T07:09:19;1.33;;;1.23;;
41627;SDS011;27321;50.816;6.054;2024-03-06T07:12:20;1.52;;;1.17;;
41627;SDS011;27321;50.816;6.054;2024-03-06T07:15:22;1.25;;;0.95;;
41627;SDS011;27321;50.816;6.054;2024-03-06T07:18:23;1.67;;;1.20;;
41627;SDS011;27321;50.816;6.054;2024-03-06T07:21:24;2.17;;;1.10;;
41627;SDS011;27321;50.816;6.054;2024-03-06T07:24:25;2.43;;;1.20;;
41627;SDS011;27321;50.816;6.054;2024-03-06T07:27:25;1.37;;;1.20;;
41627;SDS011;27321;50.816;6.054;2024-03-06T07:30:27;2.13;;;0.93;;
41627;SDS011;27321;50.816;6.054;2024-03-06T07:33:30;1.50;;;1.37;;
41627;SDS011;27321;50.816;6.054;2024-03-06T07:36:34;2.20;;;1.47;;
41627;SDS011;27321;50.816;6.054;2024-03-06T07:39:35;2.55;;;1.38;;
41627;SDS011;27321;50.816;6.054;2024-03-06T07:42:38;1.63;;;1.40;;
41627;SDS011;27321;50.816;6.054;2024-03-06T07:45:39;2.73;;;1.70;;
41627;SDS011;27321;50.816;6.054;2024-03-06T07:48:43;2.20;;;1.60;;
41627;SDS011;27321;50.816;6.054;2024-03-06T07:51:44;1.77;;;1.67;;
41627;SDS011;27321;50.816;6.054;2024-03-06T07:54:45;1.50;;;1.40;;
41627;SDS011;27321;50.816;6.054;2024-03-06T07:57:48;2.70;;;1.35;;
41627;SDS011;27321;50.816;6.054;2024-03-06T08:03:50;4.47;;;2.00;;
41627;SDS011;27321;50.816;6.054;2024-03-06T08:06:50;1.90;;;1.50;;
41627;SDS011;27321;50.816;6.054;2024-03-06T08:09:51;1.53;;;1.43;;
41627;SDS011;27321;50.816;6.054;2024-03-06T08:12:52;3.77;;;1.77;;
41627;SDS011;27321;50.816;6.054;2024-03-06T08:15:53;2.13;;;1.70;;
41627;SDS011;27321;50.816;6.054;2024-03-06T08:18:54;2.47;;;1.77;;
41627;SDS011;27321;50.816;6.054;2024-03-06T08:21:59;1.70;;;1.50;;
41627;SDS011;27321;50.816;6.054;2024-03-06T08:28:08;3.57;;;1.63;;
41627;SDS011;27321;50.816;6.054;2024-03-06T08:34:11;2.10;;;1.70;;
41627;SDS011;27321;50.816;6.054;2024-03-06T08:37:11;2.33;;;1.77;;
41627;SDS011;27321;50.816;6.054;2024-03-06T08:40:14;2.10;;;1.90;;
41627;SDS011;27321;50.816;6.054;2024-03-06T08:46:16;2.42;;;1.80;;
41627;SDS011;27321;50.816;6.054;2024-03-06T08:49:17;2.27;;;1.63;;
41627;SDS011;27321;50.816;6.054;2024-03-06T08:52:19;2.23;;;1.60;;
41627;SDS011;27321;50.816;6.054;2024-03-06T08:55:21;1.53;;;1.43;;
41627;SDS011;27321;50.816;6.054;2024-03-06T08:58:22;1.80;;;1.50;;
41627;SDS011;27321;50.816;6.054;2024-03-06T09:01:23;2.17;;;1.20;;
41627;SDS011;27321;50.816;6.054;2024-03-06T09:04:25;2.90;;;1.47;;
41627;SDS011;27321;50.816;6.054;2024-03-06T09:07:26;1.60;;;1.50;;
41627;SDS011;27321;50.816;6.054;2024-03-06T09:10:27;2.20;;;2.00;;
41627;SDS011;27321;50.816;6.054;2024-03-06T09:13:28;2.05;;;1.85;;
41627;SDS011;27321;50.816;6.054;2024-03-06T09:16:29;3.83;;;2.53;;
41627;SDS011;27321;50.816;6.054;2024-03-06T09:19:30;3.93;;;1.93;;
41627;SDS011;27321;50.816;6.054;2024-03-06T09:22:32;4.10;;;2.70;;
41627;SDS011;27321;50.816;6.054;2024-03-06T09:25:33;2.43;;;2.17;;
41627;SDS011;27321;50.816;6.054;2024-03-06T09:28:34;5.45;;;2.40;;
41627;SDS011;27321;50.816;6.054;2024-03-06T09:31:35;2.17;;;1.77;;
41627;SDS011;27321;50.816;6.054;2024-03-06T09:34:37;3.22;;;1.95;;
41627;SDS011;27321;50.816;6.054;2024-03-06T09:37:38;1.83;;;1.63;;
41627;SDS011;27321;50.816;6.054;2024-03-06T09:40:39;2.53;;;1.88;;
41627;SDS011;27321;50.816;6.054;2024-03-06T09:43:43;2.83;;;1.90;;
41627;SDS011;27321;50.816;6.054;2024-03-06T09:46:47;2.93;;;2.10;;
41627;SDS011;27321;50.816;6.054;2024-03-06T09:49:50;2.00;;;1.80;;
41627;SDS011;27321;50.816;6.054;2024-03-06T09:52:55;2.90;;;1.70;;
41627;SDS011;27321;50.816;6.054;2024-03-06T09:55:57;1.75;;;1.65;;
41627;SDS011;27321;50.816;6.054;2024-03-06T09:58:59;2.00;;;1.57;;
41627;SDS011;27321;50.816;6.054;2024-03-06T10:02:02;1.77;;;1.50;;
41627;SDS011;27321;50.816;6.054;2024-03-06T10:05:31;2.57;;;2.13;;
41627;SDS011;27321;50.816;6.054;2024-03-06T10:08:34;3.43;;;2.03;;
41627;SDS011;27321;50.816;6.054;2024-03-06T10:11:39;2.97;;;2.40;;
41627;SDS011;27321;50.816;6.054;2024-03-06T10:14:48;2.73;;;2.17;;
41627;SDS011;27321;50.816;6.054;2024-03-06T10:17:52;2.80;;;2.13;;
41627;SDS011;27321;50.816;6.054;2024-03-06T10:20:53;2.17;;;1.63;;
41627;SDS011;27321;50.816;6.054;2024-03-06T10:23:57;2.97;;;2.08;;
41627;SDS011;27321;50.816;6.054;2024-03-06T10:26:58;3.43;;;2.20;;
41627;SDS011;27321;50.816;6.054;2024-03-06T10:30:03;3.40;;;2.57;;
41627;SDS011;27321;50.816;6.054;2024-03-06T10:33:06;2.40;;;2.10;;
41627;SDS011;27321;50.816;6.054;2024-03-06T10:36:09;3.38;;;2.08;;
41627;SDS011;27321;50.816;6.054;2024-03-06T10:39:12;4.00;;;2.10;;
41627;SDS011;27321;50.816;6.054;2024-03-06T10:42:15;3.50;;;2.03;;
41627;SDS011;27321;50.816;6.054;2024-03-06T10:45:18;2.00;;;1.80;;
41627;SDS011;27321;50.816;6.054;2024-03-06T10:48:24;2.33;;;1.63;;
41627;SDS011;27321;50.816;6.054;2024-03-06T10:51:28;1.93;;;1.50;;
41627;SDS011;27321;50.816;6.054;2024-03-06T10:54:31;2.73;;;2.10;;
41627;SDS011;27321;50.816;6.054;2024-03-06T10:57:34;3.57;;;1.80;;
41627;SDS011;27321;50.816;6.054;2024-03-06T11:00:38;2.20;;;1.97;;
41627;SDS011;27321;50.816;6.054;2024-03-06T11:03:49;2.88;;;1.83;;
41627;SDS011;27321;50.816;6.054;2024-03-06T11:06:50;2.42;;;1.63;;
41627;SDS011;27321;50.816;6.054;2024-03-06T11:09:51;1.60;;;1.33;;
41627;SDS011;27321;50.816;6.054;2024-03-06T11:12:52;2.33;;;1.35;;
41627;SDS011;27321;50.816;6.054;2024-03-06T11:15:53;2.03;;;1.67;;
41627;SDS011;27321;50.816;6.054;2024-03-06T11:19:08;2.80;;;1.50;;
41627;SDS011;27321;50.816;6.054;2024-03-06T11:22:09;2.17;;;1.50;;
41627;SDS011;27321;50.816;6.054;2024-03-06T11:25:51;2.17;;;1.63;;
41627;SDS011;27321;50.816;6.054;2024-03-06T11:28:55;2.47;;;1.60;;
41627;SDS011;27321;50.816;6.054;2024-03-06T11:32:00;1.20;;;1.05;;
41627;SDS011;27321;50.816;6.054;2024-03-06T11:35:04;1.23;;;1.13;;
41627;SDS011;27321;50.816;6.054;2024-03-06T11:38:06;2.73;;;1.53;;
41627;SDS011;27321;50.816;6.054;2024-03-06T11:41:09;1.27;;;1.17;;
41627;SDS011;27321;50.816;6.054;2024-03-06T11:44:14;1.40;;;1.30;;
41627;SDS011;27321;50.816;6.054;2024-03-06T11:47:25;1.40;;;1.30;;
41627;SDS011;27321;50.816;6.054;2024-03-06T11:50:27;1.33;;;1.20;;
41627;SDS011;27321;50.816;6.054;2024-03-06T11:56:30;1.63;;;1.52;;
41627;SDS011;27321;50.816;6.054;2024-03-06T11:59:32;2.27;;;1.63;;
41627;SDS011;27321;50.816;6.054;2024-03-06T12:02:38;2.83;;;1.70;;
41627;SDS011;27321;50.816;6.054;2024-03-06T12:05:39;1.90;;;1.77;;
41627;SDS011;27321;50.816;6.054;2024-03-06T12:08:40;2.27;;;1.63;;
41627;SDS011;27321;50.816;6.054;2024-03-06T12:11:41;1.90;;;1.73;;
41627;SDS011;27321;50.816;6.054;2024-03-06T12:14:43;2.17;;;1.70;;
41627;SDS011;27321;50.816;6.054;2024-03-06T12:17:59;3.20;;;1.83;;
41627;SDS011;27321;50.816;6.054;2024-03-06T12:21:02;1.53;;;1.37;;
41627;SDS011;27321;50.816;6.054;2024-03-06T12:24:05;2.13;;;1.27;;
41627;SDS011;27321;50.816;6.054;2024-03-06T12:27:09;1.37;;;1.17;;
41627;SDS011;27321;50.816;6.054;2024-03-06T12:30:15;1.30;;;1.20;;
41627;SDS011;27321;50.816;6.054;2024-03-06T12:33:23;1.60;;;1.33;;
41627;SDS011;27321;50.816;6.054;2024-03-06T12:36:27;1.00;;;1.00;;
41627;SDS011;27321;50.816;6.054;2024-03-06T12:39:31;1.20;;;1.10;;
41627;SDS011;27321;50.816;6.054;2024-03-06T12:42:33;1.83;;;1.20;;
41627;SDS011;27321;50.816;6.054;2024-03-06T12:45:34;0.77;;;0.73;;
41627;SDS011;27321;50.816;6.054;2024-03-06T12:48:36;0.90;;;0.60;;
41627;SDS011;27321;50.816;6.054;2024-03-06T12:51:37;1.03;;;0.80;;
41627;SDS011;27321;50.816;6.054;2024-03-06T12:54:38;1.67;;;0.88;;
41627;SDS011;27321;50.816;6.054;2024-03-06T12:57:39;1.23;;;0.70;;
41627;SDS011;27321;50.816;6.054;2024-03-06T13:00:40;1.03;;;0.50;;
41627;SDS011;27321;50.816;6.054;2024-03-06T13:03:42;0.80;;;0.60;;
41627;SDS011;27321;50.816;6.054;2024-03-06T13:06:46;1.17;;;0.50;;
41627;SDS011;27321;50.816;6.054;2024-03-06T13:09:47;0.50;;;0.50;;
41627;SDS011;27321;50.816;6.054;2024-03-06T13:12:50;1.05;;;0.98;;
41627;SDS011;27321;50.816;6.054;2024-03-06T13:15:51;0.60;;;0.60;;
41627;SDS011;27321;50.816;6.054;2024-03-06T13:19:05;3.13;;;0.70;;
41627;SDS011;27321;50.816;6.054;2024-03-06T13:22:07;3.10;;;1.80;;
41627;SDS011;27321;50.816;6.054;2024-03-06T13:25:08;2.13;;;1.92;;
41627;SDS011;27321;50.816;6.054;2024-03-06T13:28:09;1.83;;;1.73;;
41627;SDS011;27321;50.816;6.054;2024-03-06T13:31:10;3.15;;;1.70;;
41627;SDS011;27321;50.816;6.054;2024-03-06T13:34:11;1.50;;;1.40;;
41627;SDS011;27321;50.816;6.054;2024-03-06T13:37:12;1.83;;;1.70;;
41627;SDS011;27321;50.816;6.054;2024-03-06T13:40:13;1.70;;;1.35;;
41627;SDS011;27321;50.816;6.054;2024-03-06T13:43:14;1.33;;;1.02;;
41627;SDS011;27321;50.816;6.054;2024-03-06T13:46:15;2.40;;;1.50;;
41627;SDS011;27321;50.816;6.054;2024-03-06T13:52:42;2.83;;;1.40;;
41627;SDS011;27321;50.816;6.054;2024-03-06T13:55:45;2.27;;;1.50;;
41627;SDS011;27321;50.816;6.054;2024-03-06T13:58:47;1.80;;;1.40;;
41627;SDS011;27321;50.816;6.054;2024-03-06T14:01:48;2.10;;;1.58;;
41627;SDS011;27321;50.816;6.054;2024-03-06T14:04:49;1.08;;;1.00;;
41627;SDS011;27321;50.816;6.054;2024-03-06T14:07:50;1.75;;;1.33;;
41627;SDS011;27321;50.816;6.054;2024-03-06T14:10:52;3.37;;;1.90;;
41627;SDS011;27321;50.816;6.054;2024-03-06T14:13:53;1.60;;;1.27;;
41627;SDS011;27321;50.816;6.054;2024-03-06T14:16:55;3.55;;;1.60;;
41627;SDS011;27321;50.816;6.054;2024-03-06T14:19:56;2.13;;;1.77;;
41627;SDS011;27321;50.816;6.054;2024-03-06T14:22:57;1.88;;;1.27;;
41627;SDS011;27321;50.816;6.054;2024-03-06T14:25:58;1.77;;;1.38;;
41627;SDS011;27321;50.816;6.054;2024-03-06T14:28:59;1.90;;;1.73;;
41627;SDS011;27321;50.816;6.054;2024-03-06T14:32:03;1.97;;;1.70;;
41627;SDS011;27321;50.816;6.054;2024-03-06T14:35:09;2.20;;;1.97;;
41627;SDS011;27321;50.816;6.054;2024-03-06T14:38:10;3.20;;;1.73;;
41627;SDS011;27321;50.816;6.054;2024-03-06T14:41:13;1.67;;;1.50;;
41627;SDS011;27321;50.816;6.054;2024-03-06T14:44:14;1.50;;;1.40;;
41627;SDS011;27321;50.816;6.054;2024-03-06T14:47:18;1.63;;;1.30;;
41627;SDS011;27321;50.816;6.054;2024-03-06T14:50:19;2.10;;;1.90;;
41627;SDS011;27321;50.816;6.054;2024-03-06T14:53:22;3.13;;;2.10;;
41627;SDS011;27321;50.816;6.054;2024-03-06T14:56:23;2.73;;;2.07;;
41627;SDS011;27321;50.816;6.054;2024-03-06T14:59:24;1.90;;;1.75;;
41627;SDS011;27321;50.816;6.054;2024-03-06T15:02:25;2.20;;;1.80;;
41627;SDS011;27321;50.816;6.054;2024-03-06T15:05:26;1.77;;;1.47;;
41627;SDS011;27321;50.816;6.054;2024-03-06T15:08:28;2.83;;;1.92;;
41627;SDS011;27321;50.816;6.054;2024-03-06T15:11:29;3.23;;;2.10;;
41627;SDS011;27321;50.816;6.054;2024-03-06T15:14:33;2.87;;;2.10;;
41627;SDS011;27321;50.816;6.054;2024-03-06T15:17:34;2.40;;;2.20;;
41627;SDS011;27321;50.816;6.054;2024-03-06T15:20:39;1.97;;;1.87;;
41627;SDS011;27321;50.816;6.054;2024-03-06T15:23:41;1.95;;;1.85;;
41627;SDS011;27321;50.816;6.054;2024-03-06T15:26:42;1.63;;;1.48;;
41627;SDS011;27321;50.816;6.054;2024-03-06T15:29:43;2.15;;;1.80;;
41627;SDS011;27321;50.816;6.054;2024-03-06T15:32:44;1.58;;;1.48;;
41627;SDS011;27321;50.816;6.054;2024-03-06T15:35:45;2.40;;;1.93;;
41627;SDS011;27321;50.816;6.054;2024-03-06T15:38:46;1.40;;;1.30;;
41627;SDS011;27321;50.816;6.054;2024-03-06T15:41:47;1.50;;;1.40;;
41627;SDS011;27321;50.816;6.054;2024-03-06T15:44:48;2.30;;;2.10;;
41627;SDS011;27321;50.816;6.054;2024-03-06T15:47:50;3.20;;;1.80;;
41627;SDS011;27321;50.816;6.054;2024-03-06T15:50:51;3.53;;;2.70;;
41627;SDS011;27321;50.816;6.054;2024-03-06T15:53:52;3.38;;;2.30;;
41627;SDS011;27321;50.816;6.054;2024-03-06T15:56:53;2.70;;;2.28;;
41627;SDS011;27321;50.816;6.054;2024-03-06T15:59:54;2.40;;;2.20;;
41627;SDS011;27321;50.816;6.054;2024-03-06T16:02:55;2.00;;;1.73;;
41627;SDS011;27321;50.816;6.054;2024-03-06T16:05:58;3.83;;;2.60;;
41627;SDS011;27321;50.816;6.054;2024-03-06T16:08:59;3.00;;;2.42;;
41627;SDS011;27321;50.816;6.054;2024-03-06T16:12:02;3.57;;;2.20;;
41627;SDS011;27321;50.816;6.054;2024-03-06T16:15:06;2.50;;;2.20;;
41627;SDS011;27321;50.816;6.054;2024-03-06T16:18:07;2.00;;;1.80;;
41627;SDS011;27321;50.816;6.054;2024-03-06T16:21:08;2.58;;;1.92;;
41627;SDS011;27321;50.816;6.054;2024-03-06T16:24:09;2.22;;;1.80;;
41627;SDS011;27321;50.816;6.054;2024-03-06T16:27:10;2.20;;;2.00;;
41627;SDS011;27321;50.816;6.054;2024-03-06T16:30:11;2.90;;;2.35;;
41627;SDS011;27321;50.816;6.054;2024-03-06T16:33:13;2.15;;;1.95;;
41627;SDS011;27321;50.816;6.054;2024-03-06T16:36:14;1.97;;;1.73;;
41627;SDS011;27321;50.816;6.054;2024-03-06T16:39:16;2.40;;;2.10;;
41627;SDS011;27321;50.816;6.054;2024-03-06T16:42:17;3.47;;;1.83;;
41627;SDS011;27321;50.816;6.054;2024-03-06T16:45:18;3.72;;;2.38;;
41627;SDS011;27321;50.816;6.054;2024-03-06T16:48:19;1.40;;;1.30;;
41627;SDS011;27321;50.816;6.054;2024-03-06T16:51:20;2.30;;;2.00;;
41627;SDS011;27321;50.816;6.054;2024-03-06T16:54:22;2.53;;;1.70;;
41627;SDS011;27321;50.816;6.054;2024-03-06T16:57:23;1.60;;;1.40;;
41627;SDS011;27321;50.816;6.054;2024-03-06T17:00:29;1.70;;;1.60;;
41627;SDS011;27321;50.816;6.054;2024-03-06T17:03:31;1.83;;;1.57;;
41627;SDS011;27321;50.816;6.054;2024-03-06T17:06:32;2.27;;;1.27;;
41627;SDS011;27321;50.816;6.054;2024-03-06T17:09:33;1.55;;;1.38;;
41627;SDS011;27321;50.816;6.054;2024-03-06T17:12:34;1.70;;;1.58;;
41627;SDS011;27321;50.816;6.054;2024-03-06T17:15:35;1.23;;;1.13;;
41627;SDS011;27321;50.816;6.054;2024-03-06T17:18:37;1.27;;;1.17;;
41627;SDS011;27321;50.816;6.054;2024-03-06T17:21:39;1.40;;;1.30;;
41627;SDS011;27321;50.816;6.054;2024-03-06T17:24:40;1.55;;;1.45;;
41627;SDS011;27321;50.816;6.054;2024-03-06T17:27:42;1.73;;;1.63;;
41627;SDS011;27321;50.816;6.054;2024-03-06T17:30:44;1.77;;;1.67;;
41627;SDS011;27321;50.816;6.054;2024-03-06T17:33:46;1.93;;;1.73;;
41627;SDS011;27321;50.816;6.054;2024-03-06T17:36:48;2.15;;;1.30;;
41627;SDS011;27321;50.816;6.054;2024-03-06T17:39:49;1.70;;;1.60;;
41627;SDS011;27321;50.816;6.054;2024-03-06T17:42:51;1.23;;;1.13;;
41627;SDS011;27321;50.816;6.054;2024-03-06T17:45:52;1.53;;;1.30;;
41627;SDS011;27321;50.816;6.054;2024-03-06T17:48:56;1.63;;;1.50;;
41627;SDS011;27321;50.816;6.054;2024-03-06T17:51:57;1.50;;;1.37;;
41627;SDS011;27321;50.816;6.054;2024-03-06T17:54:58;4.20;;;1.57;;
41627;SDS011;27321;50.816;6.054;2024-03-06T17:58:00;1.58;;;1.45;;
41627;SDS011;27321;50.816;6.054;2024-03-06T18:01:03;1.80;;;1.63;;
41627;SDS011;27321;50.816;6.054;2024-03-06T18:04:04;1.63;;;1.42;;
41627;SDS011;27321;50.816;6.054;2024-03-06T18:07:07;1.67;;;1.53;;
41627;SDS011;27321;50.816;6.054;2024-03-06T18:10:08;1.70;;;1.60;;
41627;SDS011;27321;50.816;6.054;2024-03-06T18:13:13;2.00;;;1.80;;
41627;SDS011;27321;50.816;6.054;2024-03-06T18:19:15;2.43;;;1.90;;
41627;SDS011;27321;50.816;6.054;2024-03-06T18:22:19;2.53;;;1.90;;
41627;SDS011;27321;50.816;6.054;2024-03-06T18:25:20;1.98;;;1.80;;
41627;SDS011;27321;50.816;6.054;2024-03-06T18:32:07;1.67;;;1.57;;
41627;SDS011;27321;50.816;6.054;2024-03-06T18:35:08;3.23;;;2.03;;
41627;SDS011;27321;50.816;6.054;2024-03-06T18:38:09;2.63;;;2.07;;
41627;SDS011;27321;50.816;6.054;2024-03-06T18:41:14;2.20;;;2.00;;
41627;SDS011;27321;50.816;6.054;2024-03-06T18:44:15;2.13;;;1.92;;
41627;SDS011;27321;50.816;6.054;2024-03-06T18:47:19;3.50;;;2.47;;
41627;SDS011;27321;50.816;6.054;2024-03-06T18:50:20;2.00;;;1.80;;